Nyk Aphrodite — HPAZ — position and weather

sailwx.info

Track history (hours):
 
Tides and Currents Weather Stations Pressure Air Temp Water Temp Dewpoint Dewpoint Depression Visibility Wind Speed Wind Dir Waves Ship Positions

Nyk Aphrodite

Last reported at 2018-Jun-29 15:06 UTC. Time now 2018-Jul-16 22:15 UTC.
Position N 01°16' E 104°12'.
Warning: this ship's position is 17 days out of date.

Length 299 m; draft 9.6 m.

Type: Cargo ship. MMSI: 351554000.

Date/timePositionNaut miles runAvg speedWind from/ knotsBaromVisibWave heightAir tempDewpointWater temp
2018-Jun-29 15:06N 01°16' E 104°12'219.9
2018-Jun-29 15:00N 01°16' E 104°09'917.3
2018-Jun-29 14:30N 01°15' E 104°01'816.7
2018-Jun-29 14:00N 01°12' E 103°53'4 8.9
2018-Jun-29 13:30N 01°12' E 103°48'4 7.9
2018-Jun-29 13:00N 01°15' E 103°46'1 2.2
2018-Jun-29 12:29N 01°17' E 103°47'0 0.1
2018-Jun-29 11:59N 01°17' E 103°47'0 0.1
2018-Jun-29 11:29N 01°17' E 103°47'0 0.1
2018-Jun-29 10:57N 01°17' E 103°47'0 0.1
2018-Jun-29 10:21N 01°17' E 103°47'0 0.2
2018-Jun-29 09:57N 01°17' E 103°47'0 0.1
2018-Jun-29 09:27N 01°17' E 103°47'0 0.0
2018-Jun-29 08:59N 01°17' E 103°47'0 0.0
2018-Jun-29 08:20N 01°17' E 103°47'0 0.0
2018-Jun-29 07:57N 01°17' E 103°47'0 0.1
2018-Jun-29 07:29N 01°17' E 103°47'0 0.1
2018-Jun-29 06:54N 01°17' E 103°47'0 0.1
2018-Jun-29 06:29N 01°17' E 103°47'0 0.1
2018-Jun-29 05:57N 01°17' E 103°47'0 0.1
2018-Jun-29 05:29N 01°17' E 103°47'0 0.0
2018-Jun-29 04:59N 01°17' E 103°47'0 0.0
2018-Jun-29 04:29N 01°17' E 103°47'0 0.1
2018-Jun-29 03:50N 01°17' E 103°47'0 0.0
2018-Jun-29 03:27N 01°17' E 103°47'0 0.0
2018-Jun-29 02:59N 01°17' E 103°47'0 0.0
2018-Jun-29 02:27N 01°17' E 103°47'0 0.1
2018-Jun-29 01:57N 01°17' E 103°47'0 0.1
2018-Jun-29 01:29N 01°17' E 103°47'0 0.1
2018-Jun-29 00:59N 01°17' E 103°47'0 0.0
2018-Jun-29 00:29N 01°17' E 103°47'0 0.1
2018-Jun-28 23:59N 01°17' E 103°47'0 0.0
2018-Jun-28 23:29N 01°17' E 103°47'0 0.1
2018-Jun-28 22:59N 01°17' E 103°47'0 0.0
2018-Jun-28 22:29N 01°17' E 103°47'0 0.0
2018-Jun-28 21:59N 01°17' E 103°47'0 0.0
2018-Jun-28 21:27N 01°17' E 103°47'0 0.0
2018-Jun-28 20:59N 01°17' E 103°47'0 0.1
2018-Jun-28 20:30N 01°17' E 103°47'0 0.0
2018-Jun-28 19:59N 01°17' E 103°47'0 0.1
2018-Jun-28 19:30N 01°17' E 103°47'1 1.5
2018-Jun-28 19:00N 01°16' E 103°47'2 3.3
2018-Jun-28 18:30N 01°15' E 103°45'611.9
2018-Jun-28 18:00N 01°12' E 103°40'4 7.7
2018-Jun-28 17:30N 01°13' E 103°36'4 7.2
2018-Jun-28 17:00N 01°11' E 103°33'4 8.7
2018-Jun-28 16:30N 01°09' E 103°29'713.4
2018-Jun-28 15:59N 01°13' E 103°23'714.6
2018-Jun-28 15:30N 01°18' E 103°18'916.3
2018-Jun-28 14:58N 01°24' E 103°11'  
Track history (hours):
 
Tides and Currents Weather Stations Pressure Air Temp Water Temp Dewpoint Dewpoint Depression Visibility Wind Speed Wind Dir Waves Ship Positions

Nyk Aphrodite

Last reported at 2018-Jun-29 15:06 UTC. Time now 2018-Jul-16 22:15 UTC.
Position N 01°16' E 104°12'.
Warning: this ship's position is 17 days out of date.

Length 299 m; draft 9.6 m.

Type: Cargo ship. MMSI: 351554000.

Date/timePositionNaut miles runAvg speedWind from/ knotsBaromVisibWave heightAir tempDewpointWater temp
2018-Jun-29 15:06N 01°16' E 104°12'219.9
2018-Jun-29 15:00N 01°16' E 104°09'917.3
2018-Jun-29 14:30N 01°15' E 104°01'816.7
2018-Jun-29 14:00N 01°12' E 103°53'4 8.9
2018-Jun-29 13:30N 01°12' E 103°48'4 7.9
2018-Jun-29 13:00N 01°15' E 103°46'1 2.2
2018-Jun-29 12:29N 01°17' E 103°47'0 0.1
2018-Jun-29 11:59N 01°17' E 103°47'0 0.1
2018-Jun-29 11:29N 01°17' E 103°47'0 0.1
2018-Jun-29 10:57N 01°17' E 103°47'0 0.1
2018-Jun-29 10:21N 01°17' E 103°47'0 0.2
2018-Jun-29 09:57N 01°17' E 103°47'0 0.1
2018-Jun-29 09:27N 01°17' E 103°47'0 0.0
2018-Jun-29 08:59N 01°17' E 103°47'0 0.0
2018-Jun-29 08:20N 01°17' E 103°47'0 0.0
2018-Jun-29 07:57N 01°17' E 103°47'0 0.1
2018-Jun-29 07:29N 01°17' E 103°47'0 0.1
2018-Jun-29 06:54N 01°17' E 103°47'0 0.1
2018-Jun-29 06:29N 01°17' E 103°47'0 0.1
2018-Jun-29 05:57N 01°17' E 103°47'0 0.1
2018-Jun-29 05:29N 01°17' E 103°47'0 0.0
2018-Jun-29 04:59N 01°17' E 103°47'0 0.0
2018-Jun-29 04:29N 01°17' E 103°47'0 0.1
2018-Jun-29 03:50N 01°17' E 103°47'0 0.0
2018-Jun-29 03:27N 01°17' E 103°47'0 0.0
2018-Jun-29 02:59N 01°17' E 103°47'0 0.0
2018-Jun-29 02:27N 01°17' E 103°47'0 0.1
2018-Jun-29 01:57N 01°17' E 103°47'0 0.1
2018-Jun-29 01:29N 01°17' E 103°47'0 0.1
2018-Jun-29 00:59N 01°17' E 103°47'0 0.0
2018-Jun-29 00:29N 01°17' E 103°47'0 0.1
2018-Jun-28 23:59N 01°17' E 103°47'0 0.0
2018-Jun-28 23:29N 01°17' E 103°47'0 0.1
2018-Jun-28 22:59N 01°17' E 103°47'0 0.0
2018-Jun-28 22:29N 01°17' E 103°47'0 0.0
2018-Jun-28 21:59N 01°17' E 103°47'0 0.0
2018-Jun-28 21:27N 01°17' E 103°47'0 0.0
2018-Jun-28 20:59N 01°17' E 103°47'0 0.1
2018-Jun-28 20:30N 01°17' E 103°47'0 0.0
2018-Jun-28 19:59N 01°17' E 103°47'0 0.1
2018-Jun-28 19:30N 01°17' E 103°47'1 1.5
2018-Jun-28 19:00N 01°16' E 103°47'2 3.3
2018-Jun-28 18:30N 01°15' E 103°45'611.9
2018-Jun-28 18:00N 01°12' E 103°40'4 7.7
2018-Jun-28 17:30N 01°13' E 103°36'4 7.2
2018-Jun-28 17:00N 01°11' E 103°33'4 8.7
2018-Jun-28 16:30N 01°09' E 103°29'713.4
2018-Jun-28 15:59N 01°13' E 103°23'714.6
2018-Jun-28 15:30N 01°18' E 103°18'916.3
2018-Jun-28 14:58N 01°24' E 103°11'  

Dump ship's entire track history